FW2547 Weather Reports


Display with metric or nautical units.
time (UTC)temp
F
wind
direction
speed
MPH
gust
MPH
rain 1hr
in
rain 24hr
in
rain mn
in
humidity
%
barometer
mb
20210622150241 78 360 12.0 16.0 0.00 0.00 0.00 53 1006.5
20210622144630 77 360 10.0 16.0 0.00 0.00 0.00 55 1006.3
20210622143140 77 360 6.0 14.0 0.00 0.00 0.00 56 1006.1
20210622141552 76 360 2.0 16.0 0.00 0.00 0.00 57 1006.2
20210622140222 75 360 9.0 14.0 0.00 0.00 0.00 57 1006.2
20210622134535 75 360 4.0 11.0 0.00 0.00 0.00 57 1006.1
20210622133030 75 360 11.0 14.0 0.00 0.00 0.00 57 1005.9
20210622131540 75 360 9.0 16.0 0.00 0.00 0.00 57 1005.4
20210622130032 75 360 6.0 14.0 0.00 0.00 0.00 57 1005.1
20210622124518 76 360 9.0 12.0 0.00 0.00 0.00 57 1005.1
20210622123006 76 360 6.0 11.0 0.00 0.00 0.00 57 1004.8
20210622121504 75 360 4.0 10.0 0.00 0.00 0.00 57 1004.7
20210622120205 75 360 7.0 11.0 0.00 0.00 0.00 57 1004.7
20210622114749 76 360 5.0 10.0 0.00 0.00 0.00 56 1004.6
20210622113209 76 360 7.0 12.0 0.00 0.00 0.00 55 1004.4
20210622111631 76 360 1.0 8.0 0.00 0.00 0.00 55 1004.3
20210622110251 76 19 3.0 11.0 0.00 0.00 0.00 55 1004.1
20210622104658 76 360 4.0 10.0 0.00 0.00 0.00 55 1004.2
20210622103152 77 360 3.0 10.0 0.00 0.00 0.00 54 1004.2
20210622101624 77 360 4.0 9.0 0.00 0.00 0.00 54 1004.4
20210622100140 77 360 7.0 11.0 0.00 0.00 0.00 54 1004.4
20210622093114 77 360 5.0 10.0 0.00 0.00 0.00 53 1004.4
20210622091653 77 360 11.0 17.0 0.00 0.00 0.00 53 1004.5
20210622090100 78 360 13.0 17.0 0.00 0.00 0.00 52 1004.2
20210622084557 78 360 11.0 15.0 0.00 0.00 0.00 51 1004.3
20210622083112 79 360 10.0 15.0 0.00 0.00 0.00 50 1004.3
20210622081648 79 360 13.0 18.0 0.00 0.00 0.00 49 1004.1
20210622080027 79 360 11.0 15.0 0.00 0.00 0.00 48 1003.8
20210622074528 80 360 13.0 17.0 0.00 0.00 0.00 47 1003.7
20210622073107 80 360 14.0 19.0 0.00 0.00 0.00 46 1003.8
20210622071538 81 360 8.0 15.0 0.00 0.00 0.00 45 1003.7
20210622070016 81 360 13.0 18.0 0.00 0.00 0.00 44 1003.7
20210622064518 82 360 11.0 19.0 0.00 0.00 0.00 43 1003.8
20210622063022 82 360 11.0 20.0 0.00 0.00 0.00 42 1003.9
20210622061511 82 360 14.0 25.0 0.00 0.00 0.00 41 1004.0
20210622060005 83 360 14.0 22.0 0.00 0.00 0.00 41 1004.1
20210622054504 83 360 12.0 21.0 0.00 0.00 0.00 40 1004.0
20210622053003 84 360 9.0 15.0 0.00 0.00 0.00 39 1004.4
20210622051517 84 360 14.0 18.0 0.00 0.00 0.00 38 1004.3
20210622050027 85 360 10.0 18.0 0.00 0.00 0.00 37 1004.2
20210622044512 85 360 13.0 22.0 0.00 0.00 0.00 36 1004.3
20210622043317 86 360 9.0 15.0 0.00 0.00 0.00 35 1004.4
20210622041727 86 360 11.0 15.0 0.00 0.00 0.00 35 1003.9
20210622040132 87 360 10.0 15.0 0.00 0.00 0.00 34 1003.8
20210622034721 87 360 6.0 13.0 0.00 0.00 0.00 32 1003.4
20210622033137 87 360 4.0 14.0 0.00 0.00 0.00 32 1002.8
20210622031710 88 360 6.0 16.0 0.00 0.00 0.00 32 1002.4
20210622030140 88 360 5.0 15.0 0.00 0.00 0.00 30 1001.8
20210622024657 89 360 8.0 14.0 0.00 0.00 0.00 30 1001.4
20210622023103 89 360 8.0 14.0 0.00 0.00 0.00 29 1000.7
20210622021655 89 360 14.0 19.0 0.00 0.00 0.00 29 1000.5
20210622020058 90 360 15.0 21.0 0.00 0.00 0.00 28 1000.2
20210622014641 91 360 14.0 21.0 0.00 0.00 0.00 27 999.9
20210622013114 92 360 14.0 21.0 0.00 0.00 0.00 26 999.7
20210622011552 92 360 13.0 22.0 0.00 0.00 0.00 26 999.4
20210622010254 93 360 11.0 18.0 0.00 0.00 0.00 25 999.0
20210622004546 94 360 15.0 22.0 0.00 0.00 0.00 24 998.7
20210622003111 94 360 17.0 22.0 0.00 0.00 0.00 24 998.7
20210622001643 95 360 15.0 23.0 0.00 0.00 0.00 24 998.6
20210622000044 95 360 13.0 20.0 0.00 0.00 0.00 23 998.6
20210621234652 96 360 15.0 24.0 0.00 0.00 0.00 23 998.8
20210621233036 96 360 14.0 23.0 0.00 0.00 0.00 23 998.8
20210621231542 96 105 17.0 24.0 0.00 0.00 0.00 22 999.0
20210621230044 97 360 9.0 17.0 0.00 0.00 0.00 21 999.0
20210621224543 97 360 10.0 22.0 0.00 0.00 0.00 21 999.1
20210621223115 97 360 6.0 18.0 0.00 0.00 0.00 21 999.0
20210621221617 97 360 11.0 19.0 0.00 0.00 0.00 21 999.1
20210621220058 97 360 14.0 20.0 0.00 0.00 0.00 21 999.2
20210621214551 98 360 14.0 20.0 0.00 0.00 0.00 20 999.2
20210621213040 98 360 13.0 21.0 0.00 0.00 0.00 21 999.1
20210621211532 99 360 10.0 18.0 0.00 0.00 0.00 20 999.2
20210621210058 98 360 13.0 19.0 0.00 0.00 0.00 20 999.3
20210621204623 98 360 11.0 16.0 0.00 0.00 0.00 20 999.5
20210621203031 99 360 12.0 24.0 0.00 0.00 0.00 20 999.5
20210621201538 98 360 15.0 24.0 0.00 0.00 0.00 21 999.4
20210621200055 99 17 9.0 20.0 0.00 0.00 0.00 18 999.3
20210621194540 99 360 10.0 20.0 0.00 0.00 0.00 15 999.5
20210621193046 99 25 9.0 21.0 0.00 0.00 0.00 17 999.6
20210621191607 101 348 12.0 17.0 0.00 0.00 0.00 11 999.7
20210621190021 100 360 6.0 13.0 0.00 0.00 0.00 13 999.8
20210621184550 99 360 2.0 19.0 0.00 0.00 0.00 13 1000.0
20210621183042 98 213 9.0 15.0 0.00 0.00 0.00 14 1000.1
20210621181515 97 213 7.0 13.0 0.00 0.00 0.00 15 1000.1
20210621180022 96 212 10.0 17.0 0.00 0.00 0.00 15 1000.3
20210621174505 95 212 10.0 16.0 0.00 0.00 0.00 16 1000.4
20210621173211 95 360 10.0 21.0 0.00 0.00 0.00 17 1000.3
20210621173001 95 360 10.0 21.0 0.00 0.00 0.00 17 1000.3
20210621171638 94 212 10.0 21.0 0.00 0.00 0.00 18 1000.3
20210621170210 93 212 9.0 19.0 0.00 0.00 0.00 19 1000.4
20210621164720 92 360 14.0 21.0 0.00 0.00 0.00 19 1000.2
20210621163118 91 360 12.0 20.0 0.00 0.00 0.00 20 1000.2
20210621161600 90 212 12.0 22.0 0.00 0.00 0.00 21 1000.2
20210621160138 90 360 11.0 26.0 0.00 0.00 0.00 22 1000.2
20210621154710 89 360 12.0 21.0 0.00 0.00 0.00 23 1000.3
20210621153158 88 360 13.0 22.0 0.00 0.00 0.00 24 1000.4
20210621151554 88 360 17.0 26.0 0.00 0.00 0.00 24 1000.4